createdAt,value
2023-04-11T00:00:35.820Z,11.27
2023-04-11T00:03:02.789Z,10.75
2023-04-11T00:05:33.376Z,10.35
2023-04-11T00:07:59.998Z,10.93
2023-04-11T00:10:26.620Z,11.32
2023-04-11T00:12:56.804Z,11.52
2023-04-11T00:15:24.568Z,11.35
2023-04-11T00:17:51.492Z,10.35
2023-04-11T00:20:18.189Z,10.55
2023-04-11T00:22:44.828Z,10.70
2023-04-11T00:25:11.516Z,10.75
2023-04-11T00:27:38.142Z,11.07
2023-04-11T00:30:06.921Z,10.43
2023-04-11T00:32:33.928Z,10.38
2023-04-11T00:35:01.811Z,10.77
2023-04-11T00:37:28.539Z,10.23
2023-04-11T00:39:56.354Z,10.40
2023-04-11T00:42:23.129Z,9.75
2023-04-11T00:44:50.850Z,10.73
2023-04-11T00:47:18.470Z,9.82
2023-04-11T00:49:45.772Z,10.30
2023-04-11T00:52:13.725Z,10.05
2023-04-11T00:54:40.605Z,10.50
2023-04-11T00:57:07.985Z,10.63
2023-04-11T00:59:34.655Z,10.15
2023-04-11T01:02:01.913Z,10.45
2023-04-11T01:04:32.681Z,10.23
2023-04-11T01:07:04.329Z,10.23
2023-04-11T01:09:32.640Z,10.30
2023-04-11T01:12:00.115Z,10.82
2023-04-11T01:14:27.419Z,10.73
2023-04-11T01:16:56.522Z,10.27
2023-04-11T01:19:25.827Z,9.98
2023-04-11T01:21:53.841Z,9.88
2023-04-11T01:24:20.664Z,10.80
2023-04-11T01:26:47.420Z,10.25
2023-04-11T01:29:15.684Z,10.73
2023-04-11T01:31:43.081Z,11.15
2023-04-11T01:34:12.891Z,10.32
2023-04-11T01:36:41.013Z,10.18
2023-04-11T01:39:07.924Z,10.10
2023-04-11T01:41:36.371Z,9.85
2023-04-11T01:44:05.226Z,9.90
2023-04-11T01:46:33.279Z,10.10
2023-04-11T01:49:04.401Z,10.13
2023-04-11T01:51:33.102Z,9.77
2023-04-11T01:54:00.111Z,9.15
2023-04-11T01:56:26.757Z,9.02
2023-04-11T01:58:53.702Z,8.90
2023-04-11T02:01:21.652Z,9.20
2023-04-11T02:03:48.738Z,9.18
2023-04-11T02:06:16.006Z,9.27
2023-04-11T02:08:43.559Z,9.10
2023-04-11T02:11:10.781Z,9.07
2023-04-11T02:13:37.502Z,9.60
2023-04-11T02:16:11.741Z,9.20
2023-04-11T02:18:38.482Z,9.45
2023-04-11T02:21:06.040Z,8.77
2023-04-11T02:23:34.265Z,9.07
2023-04-11T02:26:02.137Z,9.10
2023-04-11T02:28:29.419Z,8.95
2023-04-11T02:30:56.384Z,8.60
2023-04-11T02:33:23.233Z,8.68
2023-04-11T02:35:49.997Z,8.70
2023-04-11T02:38:16.700Z,8.77
2023-04-11T02:40:43.337Z,8.43
2023-04-11T02:43:10.064Z,8.88
2023-04-11T02:45:37.935Z,8.80
2023-04-11T02:48:05.273Z,8.50
2023-04-11T02:50:35.526Z,8.40
2023-04-11T02:53:02.346Z,8.77
2023-04-11T02:55:29.072Z,8.45
2023-04-11T02:57:55.690Z,8.93
2023-04-11T03:00:22.612Z,8.23
2023-04-11T03:02:57.127Z,8.25
2023-04-11T03:05:24.971Z,8.18
2023-04-11T03:07:53.460Z,8.27
2023-04-11T03:10:20.331Z,8.00
2023-04-11T03:12:46.985Z,8.45
2023-04-11T03:15:15.653Z,8.55
2023-04-11T03:17:42.459Z,8.52
2023-04-11T03:20:13.648Z,8.50
2023-04-11T03:22:46.582Z,8.20
2023-04-11T03:25:13.591Z,8.15
2023-04-11T03:27:41.449Z,7.63
2023-04-11T03:30:10.871Z,8.57
2023-04-11T03:32:42.994Z,8.20
2023-04-11T03:35:11.128Z,8.93
2023-04-11T03:37:42.909Z,8.10
2023-04-11T03:40:10.416Z,8.57
2023-04-11T03:42:40.612Z,8.38
2023-04-11T03:45:10.665Z,8.30
2023-04-11T03:47:38.402Z,7.82
2023-04-11T03:50:07.012Z,8.57
2023-04-11T03:52:39.598Z,8.57
2023-04-11T03:55:11.092Z,8.35
2023-04-11T03:57:38.436Z,8.48
2023-04-11T04:00:06.582Z,8.82
2023-04-11T04:02:42.167Z,8.50
2023-04-11T04:05:12.910Z,8.55
2023-04-11T04:07:40.510Z,8.70
2023-04-11T04:10:21.795Z,9.00
2023-04-11T04:12:53.020Z,8.65
2023-04-11T04:15:22.929Z,8.55
2023-04-11T04:17:51.271Z,8.77
2023-04-11T04:20:25.790Z,8.23
2023-04-11T04:22:56.253Z,8.15
2023-04-11T04:25:32.964Z,7.65
2023-04-11T04:28:00.964Z,8.00
2023-04-11T04:30:37.995Z,8.38
2023-04-11T04:33:12.265Z,8.65
2023-04-11T04:35:43.208Z,8.30
2023-04-11T04:38:09.969Z,8.38
2023-04-11T04:40:43.876Z,8.25
2023-04-11T04:43:18.478Z,8.70
2023-04-11T04:46:05.997Z,8.33
2023-04-11T04:48:40.519Z,8.68
2023-04-11T04:51:07.909Z,8.60
2023-04-11T04:53:38.885Z,7.82
2023-04-11T04:56:08.344Z,8.40
2023-04-11T04:58:39.362Z,8.10
2023-04-11T05:01:09.318Z,7.82
2023-04-11T05:03:38.749Z,7.88
2023-04-11T05:06:10.743Z,8.07
2023-04-11T05:08:38.889Z,8.13
2023-04-11T05:11:07.826Z,8.10
2023-04-11T05:13:35.947Z,8.07
2023-04-11T05:16:04.379Z,7.80
2023-04-11T05:18:31.446Z,8.35
2023-04-11T05:20:58.406Z,8.30
2023-04-11T05:23:31.354Z,8.27
2023-04-11T05:26:01.290Z,8.15
2023-04-11T05:28:31.587Z,8.50
2023-04-11T05:30:58.933Z,8.20
2023-04-11T05:33:27.063Z,8.23
2023-04-11T05:35:55.673Z,8.32
2023-04-11T05:38:23.535Z,8.23
2023-04-11T05:40:50.151Z,9.00
2023-04-11T05:43:16.747Z,8.07
2023-04-11T05:45:48.078Z,8.63
2023-04-11T05:48:16.852Z,9.23
2023-04-11T05:50:43.511Z,8.93
2023-04-11T05:53:10.205Z,9.40
2023-04-11T05:55:37.617Z,8.68
2023-04-11T05:58:04.859Z,9.07
2023-04-11T06:00:32.360Z,8.80
2023-04-11T06:03:00.306Z,9.07
2023-04-11T06:05:31.269Z,8.88
2023-04-11T06:08:02.119Z,9.30
2023-04-11T06:10:29.848Z,8.75
2023-04-11T06:12:57.329Z,8.77
2023-04-11T06:15:25.147Z,8.63
2023-04-11T06:17:51.833Z,8.98
2023-04-11T06:20:18.764Z,8.85
2023-04-11T06:22:46.958Z,8.77
2023-04-11T06:25:14.387Z,8.80
2023-04-11T06:27:41.377Z,9.57
2023-04-11T06:30:09.065Z,8.80
2023-04-11T06:32:35.939Z,9.02
2023-04-11T06:35:02.656Z,8.93
2023-04-11T06:37:29.301Z,8.63
2023-04-11T06:39:55.984Z,8.55
2023-04-11T06:42:22.655Z,10.07
2023-04-11T06:44:51.512Z,10.05
2023-04-11T06:47:18.197Z,9.45
2023-04-11T06:49:44.804Z,9.40
2023-04-11T06:52:11.535Z,9.40
2023-04-11T06:54:38.165Z,8.82
2023-04-11T06:57:05.047Z,9.20
2023-04-11T06:59:32.195Z,8.48
2023-04-11T07:01:59.516Z,8.80
2023-04-11T07:04:26.309Z,9.40
2023-04-11T07:06:53.081Z,8.70
2023-04-11T07:09:19.770Z,9.30
2023-04-11T07:11:46.445Z,9.00
2023-04-11T07:14:13.136Z,8.70
2023-04-11T07:16:39.981Z,9.32
2023-04-11T07:19:06.733Z,8.45
2023-04-11T07:21:33.457Z,8.70
2023-04-11T07:24:00.730Z,8.18
2023-04-11T07:26:32.186Z,9.10
2023-04-11T07:28:59.645Z,8.20
2023-04-11T07:31:27.410Z,8.85
2023-04-11T07:33:54.351Z,8.15
2023-04-11T07:36:21.597Z,8.32
2023-04-11T07:38:48.218Z,8.13
2023-04-11T07:41:16.293Z,8.30
2023-04-11T07:43:43.119Z,7.97
2023-04-11T07:46:10.006Z,8.57
2023-04-11T07:48:36.792Z,8.55
2023-04-11T07:51:03.551Z,8.35
2023-04-11T07:53:32.688Z,8.23
2023-04-11T07:55:59.805Z,8.02
2023-04-11T07:58:26.430Z,8.18
2023-04-11T08:00:53.690Z,8.13
2023-04-11T08:03:21.046Z,7.88
2023-04-11T08:05:47.995Z,8.15
2023-04-11T08:08:14.617Z,8.30
2023-04-11T08:10:41.189Z,7.90
2023-04-11T08:13:07.817Z,8.05
2023-04-11T08:15:36.885Z,8.45
2023-04-11T08:18:05.338Z,8.35
2023-04-11T08:20:32.024Z,8.35
2023-04-11T08:22:59.427Z,8.02
2023-04-11T08:25:26.136Z,8.05
2023-04-11T08:27:52.849Z,7.85
2023-04-11T08:30:20.759Z,7.90
2023-04-11T08:32:47.540Z,7.55
2023-04-11T08:35:14.342Z,8.32
2023-04-11T08:37:41.571Z,8.50
2023-04-11T08:40:09.142Z,8.55
2023-04-11T08:42:36.221Z,7.95
2023-04-11T08:45:05.083Z,7.63
2023-04-11T08:47:31.989Z,8.15
2023-04-11T08:49:58.670Z,8.02
2023-04-11T08:52:25.632Z,8.02
2023-04-11T08:54:56.199Z,7.60
2023-04-11T08:57:26.832Z,7.80
2023-04-11T09:00:00.269Z,7.60
2023-04-11T09:02:27.749Z,7.60
2023-04-11T09:04:55.097Z,7.70
2023-04-11T09:07:22.073Z,8.25
2023-04-11T09:09:48.705Z,7.85
2023-04-11T09:12:15.885Z,7.55
2023-04-11T09:14:42.639Z,7.55
2023-04-11T09:17:17.101Z,7.63
2023-04-11T09:19:45.070Z,8.02
2023-04-11T09:22:13.727Z,7.55
2023-04-11T09:24:40.618Z,7.75
2023-04-11T09:27:07.712Z,7.65
2023-04-11T09:29:39.548Z,7.65
2023-04-11T09:32:06.562Z,7.75
2023-04-11T09:34:34.693Z,7.70
2023-04-11T09:37:02.108Z,7.85
2023-04-11T09:39:29.923Z,8.15
2023-04-11T09:41:57.382Z,7.65
2023-04-11T09:44:38.095Z,7.75
2023-04-11T09:47:05.038Z,7.35
2023-04-11T09:49:32.941Z,7.63
2023-04-11T09:52:01.174Z,7.65
2023-04-11T09:54:28.752Z,7.50
2023-04-11T09:56:56.178Z,7.50
2023-04-11T09:59:22.988Z,7.70
2023-04-11T10:01:51.498Z,7.35
2023-04-11T10:04:20.463Z,7.55
2023-04-11T10:07:05.716Z,7.10
2023-04-11T10:09:33.399Z,7.60
2023-04-11T10:11:59.974Z,7.18
2023-04-11T10:14:38.869Z,7.15
2023-04-11T10:17:25.753Z,7.18
2023-04-11T10:19:58.921Z,7.00
2023-04-11T10:22:41.124Z,7.00
2023-04-11T10:25:21.285Z,7.35
2023-04-11T10:28:00.596Z,7.50
2023-04-11T10:30:39.321Z,6.90
2023-04-11T10:33:12.963Z,7.30
2023-04-11T10:35:59.594Z,7.10
2023-04-11T10:38:44.779Z,7.10
2023-04-11T10:41:27.444Z,7.20
2023-04-11T10:44:13.104Z,6.88
2023-04-11T10:46:51.150Z,7.70
2023-04-11T10:49:37.201Z,7.00
2023-04-11T10:52:17.374Z,7.03
2023-04-11T10:54:46.352Z,6.65
2023-04-11T10:57:13.227Z,7.32
2023-04-11T10:59:39.795Z,7.18
2023-04-11T11:02:06.546Z,6.88
2023-04-11T11:04:34.039Z,7.13
2023-04-11T11:07:01.807Z,6.90
2023-04-11T11:09:28.955Z,7.15
2023-04-11T11:12:14.382Z,7.40
2023-04-11T11:17:09.080Z,6.78
2023-04-11T11:19:36.049Z,7.45
2023-04-11T11:22:14.770Z,7.55
2023-04-11T11:24:41.369Z,6.43
2023-04-11T11:27:21.599Z,6.90
2023-04-11T11:29:48.625Z,6.88
2023-04-11T11:32:24.182Z,6.78
2023-04-11T11:34:52.956Z,7.10
2023-04-11T11:37:20.049Z,7.20
2023-04-11T11:39:47.186Z,6.75
2023-04-11T11:42:14.413Z,7.05
2023-04-11T11:44:41.314Z,6.38
2023-04-11T11:47:12.914Z,6.63
2023-04-11T11:49:46.993Z,7.10
2023-04-11T11:52:36.487Z,6.57
2023-04-11T11:55:06.802Z,6.57
2023-04-11T11:57:34.467Z,6.60
2023-04-11T12:00:02.183Z,6.18
2023-04-11T12:02:34.246Z,6.55
2023-04-11T12:05:04.431Z,6.50
2023-04-11T12:07:33.309Z,6.65
2023-04-11T12:10:08.083Z,6.25
2023-04-11T12:12:38.878Z,6.50
2023-04-11T12:15:17.014Z,6.90
2023-04-11T12:17:48.324Z,7.10
2023-04-11T12:20:15.842Z,6.43
2023-04-11T12:22:42.515Z,6.38
2023-04-11T12:25:14.462Z,6.95
2023-04-11T12:27:43.242Z,6.63
2023-04-11T12:30:11.222Z,7.05
2023-04-11T12:32:38.259Z,6.60
2023-04-11T12:35:06.430Z,6.57
2023-04-11T12:37:33.866Z,6.32
2023-04-11T12:40:01.305Z,6.40
2023-04-11T12:42:27.929Z,6.50
2023-04-11T12:44:54.761Z,6.25
2023-04-11T12:47:21.463Z,6.60
2023-04-11T12:49:48.162Z,6.80
2023-04-11T12:52:14.980Z,6.40
2023-04-11T12:54:41.697Z,6.00
2023-04-11T12:57:08.435Z,5.95
2023-04-11T12:59:35.138Z,6.03
2023-04-11T13:02:01.990Z,6.20
2023-04-11T13:04:28.961Z,6.30
2023-04-11T13:07:00.812Z,6.50
2023-04-11T13:09:34.325Z,5.75
2023-04-11T13:12:03.929Z,5.80
2023-04-11T13:14:30.772Z,6.28
2023-04-11T13:16:57.625Z,5.65
2023-04-11T13:19:24.268Z,5.85
2023-04-11T13:21:50.897Z,5.78
2023-04-11T13:24:17.517Z,6.10
2023-04-11T13:26:45.050Z,5.30
2023-04-11T13:29:14.848Z,6.03
2023-04-11T13:31:41.510Z,5.68
2023-04-11T13:34:08.246Z,5.40
2023-04-11T13:36:35.532Z,4.90
2023-04-11T13:39:02.336Z,4.38
2023-04-11T13:41:29.004Z,5.00
2023-04-11T13:43:55.976Z,5.13
2023-04-11T13:46:23.252Z,4.32
2023-04-11T13:48:49.970Z,4.47
2023-04-11T13:51:16.621Z,4.50
2023-04-11T13:53:43.220Z,4.85
2023-04-11T13:56:10.646Z,4.20
2023-04-11T13:58:38.237Z,4.40
2023-04-11T14:01:05.263Z,4.20
2023-04-11T14:03:33.819Z,3.72
2023-04-11T14:06:01.285Z,4.20
2023-04-11T14:08:28.776Z,3.88
2023-04-11T14:10:55.487Z,2.88
2023-04-11T14:13:22.344Z,3.80
2023-04-11T14:15:54.739Z,3.85
2023-04-11T14:18:31.985Z,3.40
2023-04-11T14:21:01.197Z,3.20
2023-04-11T14:23:28.964Z,3.40
2023-04-11T14:25:55.956Z,3.28
2023-04-11T14:28:26.374Z,3.25
2023-04-11T14:30:53.533Z,3.45
2023-04-11T14:33:20.463Z,3.67
2023-04-11T14:35:47.376Z,3.53
2023-04-11T14:38:17.142Z,3.72
2023-04-11T14:40:44.280Z,3.80
2023-04-11T14:43:11.386Z,3.80
2023-04-11T14:45:38.213Z,3.00
2023-04-11T14:48:06.433Z,3.25
2023-04-11T14:50:33.102Z,3.55
2023-04-11T14:52:59.785Z,3.60
2023-04-11T14:55:26.526Z,3.70
2023-04-11T14:57:54.970Z,3.53
2023-04-11T15:00:22.603Z,3.65
2023-04-11T15:02:52.224Z,3.50
2023-04-11T15:05:19.830Z,3.25
2023-04-11T15:07:48.236Z,3.38
2023-04-11T15:10:16.884Z,3.90
2023-04-11T15:12:43.533Z,3.08
2023-04-11T15:15:11.111Z,3.10
2023-04-11T15:17:42.550Z,3.20
2023-04-11T15:20:11.425Z,3.38
2023-04-11T15:22:40.084Z,3.03
2023-04-11T15:25:08.857Z,3.00
2023-04-11T15:27:35.883Z,2.92
2023-04-11T15:30:03.948Z,2.95
2023-04-11T15:32:30.640Z,3.00
2023-04-11T15:34:58.232Z,3.00
2023-04-11T15:37:25.946Z,2.85
2023-04-11T15:39:52.642Z,2.83
2023-04-11T15:42:19.252Z,2.90
2023-04-11T15:44:46.110Z,2.88
2023-04-11T15:47:12.841Z,2.63
2023-04-11T15:49:39.748Z,2.60
2023-04-11T15:52:07.076Z,2.97
2023-04-11T15:54:33.871Z,2.90
2023-04-11T15:57:01.778Z,2.75
2023-04-11T15:59:28.509Z,2.88
2023-04-11T16:01:55.151Z,2.85
2023-04-11T16:04:21.914Z,2.80
2023-04-11T16:06:48.659Z,2.78
2023-04-11T16:09:15.362Z,2.70
2023-04-11T16:11:42.066Z,2.75
2023-04-11T16:14:08.634Z,3.20
2023-04-11T16:16:35.380Z,2.78
2023-04-11T16:19:02.240Z,2.70
2023-04-11T16:21:28.846Z,2.38
2023-04-11T16:23:55.713Z,2.50
2023-04-11T16:26:22.682Z,2.60
2023-04-11T16:28:49.557Z,2.40
2023-04-11T16:31:21.895Z,2.70
2023-04-11T16:33:48.632Z,2.33
2023-04-11T16:36:15.605Z,2.50
2023-04-11T16:38:42.748Z,2.50
2023-04-11T16:41:09.340Z,2.30
2023-04-11T16:43:35.936Z,2.50
2023-04-11T16:46:02.626Z,2.35
2023-04-11T16:48:30.683Z,2.38
2023-04-11T16:50:57.745Z,2.70
2023-04-11T16:53:24.357Z,2.50
2023-04-11T16:55:52.605Z,2.33
2023-04-11T16:58:19.300Z,2.20
2023-04-11T17:00:46.704Z,2.13
2023-04-11T17:03:13.467Z,2.40
2023-04-11T17:05:40.775Z,2.25
2023-04-11T17:08:07.372Z,2.00
2023-04-11T17:10:33.939Z,2.20
2023-04-11T17:13:00.806Z,2.03
2023-04-11T17:15:27.559Z,1.75
2023-04-11T17:17:54.161Z,1.90
2023-04-11T17:20:23.584Z,1.60
2023-04-11T17:22:50.453Z,1.50
2023-04-11T17:25:17.305Z,1.35
2023-04-11T17:27:43.906Z,0.98
2023-04-11T17:30:12.001Z,1.02
2023-04-11T17:32:38.969Z,1.00
2023-04-11T17:35:06.691Z,1.20
2023-04-11T17:37:34.023Z,1.05
2023-04-11T17:40:00.886Z,1.17
2023-04-11T17:42:27.556Z,1.10
2023-04-11T17:44:55.803Z,1.05
2023-04-11T17:47:23.918Z,1.00
2023-04-11T17:49:50.548Z,1.00
2023-04-11T17:52:17.180Z,1.20
2023-04-11T17:54:43.983Z,1.25
2023-04-11T17:57:10.535Z,0.93
2023-04-11T17:59:37.083Z,0.82
2023-04-11T18:02:03.751Z,1.00
2023-04-11T18:04:30.465Z,0.90
2023-04-11T18:06:58.130Z,1.00
2023-04-11T18:09:27.409Z,1.00
2023-04-11T18:11:54.140Z,1.00
2023-04-11T18:14:20.834Z,0.80
2023-04-11T18:16:47.446Z,1.23
2023-04-11T18:19:14.664Z,1.20
2023-04-11T18:21:41.657Z,1.30
2023-04-11T18:24:08.241Z,1.20
2023-04-11T18:26:35.494Z,1.40
2023-04-11T18:29:02.144Z,1.40
2023-04-11T18:31:28.859Z,1.25
2023-04-11T18:33:55.797Z,1.20
2023-04-11T18:36:24.406Z,1.20
2023-04-11T18:38:51.320Z,1.27
2023-04-11T18:41:18.749Z,1.48
2023-04-11T18:43:46.233Z,1.10
2023-04-11T18:46:14.146Z,1.23
2023-04-11T18:48:40.868Z,1.20
2023-04-11T18:51:07.525Z,1.08
2023-04-11T18:53:36.451Z,1.30
2023-04-11T18:56:03.523Z,1.10
2023-04-11T18:58:31.849Z,1.10
2023-04-11T19:01:01.766Z,1.13
2023-04-11T19:03:36.739Z,1.00
2023-04-11T19:06:03.838Z,1.00
2023-04-11T19:08:30.745Z,0.82
2023-04-11T19:10:57.341Z,0.80
2023-04-11T19:13:23.921Z,1.00
2023-04-11T19:15:50.945Z,1.00
2023-04-11T19:18:17.538Z,1.20
2023-04-11T19:20:44.212Z,1.15
2023-04-11T19:23:10.874Z,1.02
2023-04-11T19:25:37.453Z,1.15
2023-04-11T19:28:04.121Z,1.17
2023-04-11T19:30:30.972Z,1.13
2023-04-11T19:32:58.769Z,1.20
2023-04-11T19:35:25.489Z,1.23
2023-04-11T19:37:52.140Z,1.02
2023-04-11T19:40:18.969Z,1.13
2023-04-11T19:42:45.837Z,1.17
2023-04-11T19:45:12.623Z,1.15
2023-04-11T19:47:40.764Z,1.15
2023-04-11T19:50:11.680Z,1.00
2023-04-11T19:52:39.363Z,1.20
2023-04-11T19:55:07.566Z,1.10
2023-04-11T19:57:34.349Z,1.20
2023-04-11T20:00:00.934Z,1.00
2023-04-11T20:02:27.606Z,1.00
2023-04-11T20:04:56.223Z,1.00
2023-04-11T20:07:23.746Z,1.05
2023-04-11T20:09:51.417Z,1.00
2023-04-11T20:12:18.001Z,1.10
2023-04-11T20:14:44.578Z,1.00
2023-04-11T20:17:11.186Z,1.05
2023-04-11T20:19:37.975Z,1.00
2023-04-11T20:22:04.767Z,1.05
2023-04-11T20:24:31.570Z,1.10
2023-04-11T20:26:58.207Z,1.00
2023-04-11T20:31:57.364Z,1.00
2023-04-11T20:34:23.942Z,1.00
2023-04-11T20:36:50.497Z,1.00
2023-04-11T20:39:17.113Z,1.02
2023-04-11T20:41:43.769Z,1.00
2023-04-11T20:44:10.552Z,1.00
2023-04-11T20:46:39.910Z,1.10
2023-04-11T20:49:06.986Z,0.90
2023-04-11T20:51:34.129Z,1.00
2023-04-11T20:54:00.749Z,2.45
2023-04-11T20:56:27.276Z,4.13
2023-04-11T20:58:53.822Z,3.72
2023-04-11T21:01:20.898Z,3.00
2023-04-11T21:03:47.668Z,3.13
2023-04-11T21:06:14.336Z,2.65
2023-04-11T21:08:40.937Z,2.42
2023-04-11T21:11:07.735Z,2.50
2023-04-11T21:13:35.580Z,1.95
2023-04-11T21:16:02.183Z,2.00
2023-04-11T21:18:28.948Z,2.00
2023-04-11T21:20:55.684Z,2.00
2023-04-11T21:23:22.237Z,2.00
2023-04-11T21:25:48.817Z,2.08
2023-04-11T21:28:15.495Z,1.60
2023-04-11T21:30:42.403Z,1.80
2023-04-11T21:33:10.378Z,1.70
2023-04-11T21:35:36.942Z,1.58
2023-04-11T21:38:03.585Z,1.70
2023-04-11T21:40:30.806Z,1.50
2023-04-11T21:42:57.376Z,1.60
2023-04-11T21:45:24.054Z,1.60
2023-04-11T21:47:51.333Z,1.83
2023-04-11T21:50:18.234Z,1.40
2023-04-11T21:52:46.323Z,1.50
2023-04-11T21:55:14.012Z,1.70
2023-04-11T21:57:40.861Z,1.83
2023-04-11T22:00:10.668Z,1.60
2023-04-11T22:02:41.070Z,1.52
2023-04-11T22:05:12.550Z,1.40
2023-04-11T22:07:48.389Z,1.40
2023-04-11T22:10:16.040Z,1.40
2023-04-11T22:12:45.709Z,1.42
2023-04-11T22:15:12.888Z,1.50
2023-04-11T22:17:42.171Z,1.27
2023-04-11T22:20:11.082Z,1.42
2023-04-11T22:22:38.811Z,1.30
2023-04-11T22:25:06.887Z,1.30
2023-04-11T22:27:34.408Z,1.30
2023-04-11T22:30:02.395Z,1.40
2023-04-11T22:32:30.268Z,1.30
2023-04-11T22:34:56.950Z,1.33
2023-04-11T22:37:23.631Z,1.20
2023-04-11T22:39:50.316Z,1.30
2023-04-11T22:42:17.019Z,1.48
2023-04-11T22:44:43.650Z,1.30
2023-04-11T22:47:13.383Z,1.40
2023-04-11T22:49:42.957Z,1.25
2023-04-11T22:52:14.891Z,1.30
2023-04-11T22:54:42.664Z,1.20
2023-04-11T22:57:09.652Z,1.08
2023-04-11T22:59:36.715Z,1.13
2023-04-11T23:02:03.382Z,1.20
2023-04-11T23:04:31.408Z,1.13
2023-04-11T23:06:58.222Z,1.20
2023-04-11T23:09:25.339Z,1.00
2023-04-11T23:11:52.373Z,1.30
2023-04-11T23:14:21.032Z,1.10
2023-04-11T23:16:48.273Z,1.00
2023-04-11T23:19:15.047Z,1.10
2023-04-11T23:21:42.219Z,1.10
2023-04-11T23:24:09.886Z,1.20
2023-04-11T23:26:37.120Z,1.08
2023-04-11T23:29:04.106Z,1.20
2023-04-11T23:31:31.725Z,1.10
2023-04-11T23:33:58.839Z,1.00
2023-04-11T23:36:27.487Z,0.90
2023-04-11T23:38:55.099Z,1.00
2023-04-11T23:41:21.717Z,1.10
2023-04-11T23:43:48.371Z,0.90
2023-04-11T23:46:16.916Z,1.10
2023-04-11T23:48:44.322Z,0.98
2023-04-11T23:51:10.980Z,1.02
2023-04-11T23:53:38.003Z,1.00
2023-04-11T23:56:04.906Z,0.90
2023-04-11T23:58:31.528Z,1.02
